Time;durP1;ratioP1;P1;durP2;ratioP2;P2;SDS_P1;SDS_P2;PMS_P1;PMS_P2;Temp;Humidity;BMP_temperature;BMP_pressure;BME280_temperature;BME280_humidity;BME280_pressure;Samples;Min_cycle;Max_cycle;Signal;HPM_P1;HPM_P2
2023/09/27 00:02:06;;;;;;;2.17;0.40;;;;;;;;;;5031086;28;20414;-74
2023/09/27 00:04:36;;;;;;;2.20;0.38;;;;;;;;;;5032471;28;20058;-74
2023/09/27 00:07:07;;;;;;;2.42;0.60;;;;;;;;;;5032260;28;20072;-75
2023/09/27 00:09:37;;;;;;;1.15;0.30;;;;;;;;;;5032040;28;20045;-75
2023/09/27 00:12:09;;;;;;;0.43;0.30;;;;;;;;;;5031723;28;20045;-74
2023/09/27 00:14:39;;;;;;;2.78;0.50;;;;;;;;;;5031390;28;20052;-74
2023/09/27 00:17:09;;;;;;;1.88;0.50;;;;;;;;;;5030882;28;20041;-84
2023/09/27 00:19:40;;;;;;;2.05;0.50;;;;;;;;;;5031803;28;20053;-75
2023/09/27 00:22:10;;;;;;;1.30;0.20;;;;;;;;;;5032084;28;20045;-74
2023/09/27 00:24:42;;;;;;;1.08;0.13;;;;;;;;;;5031723;28;20949;-74
2023/09/27 00:27:13;;;;;;;0.20;0.10;;;;;;;;;;5032586;28;20049;-75
2023/09/27 00:29:43;;;;;;;2.60;1.17;;;;;;;;;;5031310;28;20048;-75
2023/09/27 00:32:13;;;;;;;2.17;0.75;;;;;;;;;;5032063;28;20055;-75
2023/09/27 00:34:44;;;;;;;0.55;0.30;;;;;;;;;;5025729;28;20622;-75
2023/09/27 00:37:14;;;;;;;1.50;0.50;;;;;;;;;;5022203;28;20053;-75
2023/09/27 00:39:44;;;;;;;1.50;0.65;;;;;;;;;;5022409;28;20053;-75
2023/09/27 00:42:14;;;;;;;2.38;0.70;;;;;;;;;;5021119;28;20053;-74
2023/09/27 00:44:44;;;;;;;0.85;0.30;;;;;;;;;;5021248;28;20060;-74
2023/09/27 00:47:14;;;;;;;0.30;0.20;;;;;;;;;;5021362;28;20410;-74
2023/09/27 00:49:45;;;;;;;3.35;0.45;;;;;;;;;;5022333;28;20054;-74
2023/09/27 00:52:17;;;;;;;0.45;0.20;;;;;;;;;;5021578;28;20509;-74
2023/09/27 00:54:47;;;;;;;2.00;0.35;;;;;;;;;;5021658;28;20045;-75
2023/09/27 00:57:17;;;;;;;0.95;0.40;;;;;;;;;;5022285;28;20045;-74
2023/09/27 00:59:48;;;;;;;1.38;0.30;;;;;;;;;;5022533;28;20049;-74
2023/09/27 01:02:19;;;;;;;3.55;0.30;;;;;;;;;;5022098;28;20050;-74
2023/09/27 01:04:50;;;;;;;0.90;0.75;;;;;;;;;;5022245;28;20060;-74
2023/09/27 01:07:21;;;;;;;7.15;0.60;;;;;;;;;;5022252;28;20049;-74
2023/09/27 01:09:52;;;;;;;0.50;0.45;;;;;;;;;;5022754;28;20052;-74
2023/09/27 01:12:22;;;;;;;1.77;0.55;;;;;;;;;;5029605;28;20124;-74
2023/09/27 01:14:53;;;;;;;4.00;0.80;;;;;;;;;;5031216;28;20049;-74
2023/09/27 01:17:23;;;;;;;0.75;0.40;;;;;;;;;;5034136;28;20045;-74
2023/09/27 01:19:54;;;;;;;1.60;0.63;;;;;;;;;;5040842;28;20060;-75
2023/09/27 01:22:24;;;;;;;3.90;0.90;;;;;;;;;;5042003;28;20052;-75
2023/09/27 01:24:57;;;;;;;0.93;0.43;;;;;;;;;;5040407;28;20080;-75
2023/09/27 01:27:29;;;;;;;3.03;0.40;;;;;;;;;;5040300;28;20091;-76
2023/09/27 01:29:59;;;;;;;2.15;0.90;;;;;;;;;;5039990;28;20061;-75
2023/09/27 01:32:30;;;;;;;1.95;0.50;;;;;;;;;;5040262;28;20068;-75
2023/09/27 01:35:01;;;;;;;1.05;0.55;;;;;;;;;;5041580;28;20056;-75
2023/09/27 01:37:33;;;;;;;4.00;0.80;;;;;;;;;;5041573;28;20196;-78
2023/09/27 01:40:08;;;;;;;1.88;0.50;;;;;;;;;;5041790;28;20040;-75
2023/09/27 01:42:42;;;;;;;3.00;0.50;;;;;;;;;;5041782;28;20833;-75
2023/09/27 01:45:14;;;;;;;2.65;0.35;;;;;;;;;;5041795;28;20060;-75
2023/09/27 01:47:44;;;;;;;0.60;0.20;;;;;;;;;;5040087;28;20076;-75
2023/09/27 01:50:13;;;;;;;0.80;0.40;;;;;;;;;;5040471;28;20060;-74
2023/09/27 01:52:44;;;;;;;1.60;0.30;;;;;;;;;;5040254;28;20575;-74
2023/09/27 01:55:15;;;;;;;2.05;0.30;;;;;;;;;;5041441;28;20053;-75
2023/09/27 01:57:46;;;;;;;2.22;0.38;;;;;;;;;;5041472;28;20089;-74
2023/09/27 02:00:18;;;;;;;2.75;0.40;;;;;;;;;;5039550;28;20052;-75
2023/09/27 02:02:51;;;;;;;3.75;0.32;;;;;;;;;;5040622;28;20073;-74
2023/09/27 02:05:23;;;;;;;2.67;0.40;;;;;;;;;;5041770;28;20687;-74
2023/09/27 02:07:54;;;;;;;3.20;0.50;;;;;;;;;;5042287;28;20045;-75
2023/09/27 02:10:24;;;;;;;1.42;0.32;;;;;;;;;;5041522;28;20785;-74
2023/09/27 02:12:55;;;;;;;0.65;0.30;;;;;;;;;;5040232;28;20068;-74
2023/09/27 02:15:26;;;;;;;1.77;0.20;;;;;;;;;;5041496;28;20033;-74
2023/09/27 02:17:56;;;;;;;2.67;0.32;;;;;;;;;;5040963;28;20496;-75
2023/09/27 02:20:28;;;;;;;0.65;0.43;;;;;;;;;;5039868;28;20391;-75
2023/09/27 02:22:58;;;;;;;2.38;0.30;;;;;;;;;;5041070;28;20488;-75
2023/09/27 02:25:30;;;;;;;0.45;0.32;;;;;;;;;;5041475;28;20061;-74
2023/09/27 02:28:02;;;;;;;3.33;0.60;;;;;;;;;;5040884;28;20075;-74
2023/09/27 02:30:32;;;;;;;2.72;0.60;;;;;;;;;;5041602;28;20488;-75
2023/09/27 02:33:02;;;;;;;3.30;1.88;;;;;;;;;;5041522;28;20064;-74
2023/09/27 02:35:32;;;;;;;11.77;3.20;;;;;;;;;;5040185;28;20057;-75
2023/09/27 02:38:03;;;;;;;5.97;3.25;;;;;;;;;;5039428;28;20436;-74
2023/09/27 02:40:35;;;;;;;5.75;3.22;;;;;;;;;;5045749;28;20048;-74
2023/09/27 02:43:05;;;;;;;5.90;3.17;;;;;;;;;;5044875;28;20049;-75
2023/09/27 02:45:36;;;;;;;5.18;2.70;;;;;;;;;;5027647;28;20052;-74
2023/09/27 02:48:06;;;;;;;6.90;2.72;;;;;;;;;;5042902;28;20607;-74
2023/09/27 02:50:38;;;;;;;6.22;2.53;;;;;;;;;;5045007;28;20045;-74
2023/09/27 02:53:09;;;;;;;5.82;2.40;;;;;;;;;;5044783;28;20045;-75
2023/09/27 02:55:40;;;;;;;7.95;2.75;;;;;;;;;;5045946;28;20431;-74
2023/09/27 02:58:10;;;;;;;5.25;2.60;;;;;;;;;;5044957;28;20083;-74
2023/09/27 03:00:43;;;;;;;4.15;2.00;;;;;;;;;;5044098;28;20056;-75
2023/09/27 03:03:13;;;;;;;4.72;2.00;;;;;;;;;;5043987;28;20056;-74
2023/09/27 03:05:43;;;;;;;5.93;2.05;;;;;;;;;;5043988;28;20044;-74
2023/09/27 03:08:14;;;;;;;5.35;1.90;;;;;;;;;;5043237;28;20053;-74
2023/09/27 03:10:44;;;;;;;2.85;1.50;;;;;;;;;;5044553;28;20056;-74
2023/09/27 03:13:15;;;;;;;2.85;1.45;;;;;;;;;;5044621;28;20049;-74
2023/09/27 03:15:57;;;;;;;3.58;1.40;;;;;;;;;;5043100;28;20526;-74
2023/09/27 03:18:27;;;;;;;4.03;1.15;;;;;;;;;;5042650;28;20056;-74
2023/09/27 03:20:58;;;;;;;2.65;1.20;;;;;;;;;;5042672;28;20061;-74
2023/09/27 03:23:29;;;;;;;4.65;1.20;;;;;;;;;;5042778;28;20052;-74
2023/09/27 03:25:59;;;;;;;6.75;0.95;;;;;;;;;;5043742;28;20052;-74
2023/09/27 03:28:29;;;;;;;2.25;0.93;;;;;;;;;;5026705;28;20053;-74
2023/09/27 03:31:01;;;;;;;3.38;0.80;;;;;;;;;;5042214;28;20337;-74
2023/09/27 03:33:32;;;;;;;1.35;0.60;;;;;;;;;;5042427;28;20049;-74
2023/09/27 03:36:07;;;;;;;4.00;0.80;;;;;;;;;;5043712;28;20053;-74
2023/09/27 03:38:37;;;;;;;6.78;0.63;;;;;;;;;;5043798;28;20041;-75
2023/09/27 03:41:14;;;;;;;1.27;0.30;;;;;;;;;;5044306;28;20049;-74
2023/09/27 03:43:46;;;;;;;3.05;0.60;;;;;;;;;;5043758;28;20053;-75
2023/09/27 03:46:18;;;;;;;3.92;0.35;;;;;;;;;;5043940;28;20060;-74
2023/09/27 03:48:48;;;;;;;0.40;0.30;;;;;;;;;;5041787;28;20052;-74
2023/09/27 03:51:25;;;;;;;4.40;0.65;;;;;;;;;;5042766;28;20524;-74
2023/09/27 03:53:56;;;;;;;2.22;0.60;;;;;;;;;;5041560;28;20463;-74
2023/09/27 03:56:27;;;;;;;2.95;0.95;;;;;;;;;;5042269;28;20079;-74
2023/09/27 03:58:58;;;;;;;2.22;0.38;;;;;;;;;;5026906;28;20045;-75
2023/09/27 04:01:28;;;;;;;2.88;0.50;;;;;;;;;;5043423;28;20047;-74
2023/09/27 04:04:00;;;;;;;1.40;0.40;;;;;;;;;;5041685;28;20059;-74
2023/09/27 04:06:31;;;;;;;2.92;0.30;;;;;;;;;;5042573;28;20060;-74
2023/09/27 04:09:01;;;;;;;0.82;0.20;;;;;;;;;;5043388;28;20056;-74
2023/09/27 04:11:31;;;;;;;4.45;0.50;;;;;;;;;;5042923;28;20079;-74
2023/09/27 04:14:01;;;;;;;3.20;0.40;;;;;;;;;;5042626;28;20057;-74
2023/09/27 04:16:32;;;;;;;2.65;0.20;;;;;;;;;;5044017;28;20048;-74
2023/09/27 04:19:02;;;;;;;1.55;0.22;;;;;;;;;;5043158;28;20056;-74
2023/09/27 04:21:32;;;;;;;2.50;0.20;;;;;;;;;;5043095;28;20055;-79
2023/09/27 04:24:04;;;;;;;1.45;0.20;;;;;;;;;;5043478;28;20049;-74
2023/09/27 04:26:35;;;;;;;0.40;0.10;;;;;;;;;;5042891;28;20057;-74
2023/09/27 04:29:06;;;;;;;4.35;0.68;;;;;;;;;;5043361;28;20408;-74
2023/09/27 04:31:37;;;;;;;2.38;0.30;;;;;;;;;;5042359;28;20488;-74
2023/09/27 04:34:07;;;;;;;0.10;0.10;;;;;;;;;;5042281;28;20431;-74
2023/09/27 04:36:38;;;;;;;2.08;0.22;;;;;;;;;;5043213;28;20389;-74
2023/09/27 04:39:12;;;;;;;3.33;0.30;;;;;;;;;;5042596;28;20401;-74
2023/09/27 04:41:43;;;;;;;2.00;0.22;;;;;;;;;;5042775;28;20053;-74
2023/09/27 04:44:17;;;;;;;1.83;0.20;;;;;;;;;;5042888;28;20053;-74
2023/09/27 04:46:48;;;;;;;0.50;0.10;;;;;;;;;;5040701;28;20045;-75
2023/09/27 04:49:18;;;;;;;0.08;0.08;;;;;;;;;;5042246;28;20041;-74
2023/09/27 04:51:48;;;;;;;0.85;0.28;;;;;;;;;;5041237;28;20793;-74
2023/09/27 04:54:18;;;;;;;6.13;0.40;;;;;;;;;;5042381;28;20044;-74
2023/09/27 04:56:49;;;;;;;0.98;0.20;;;;;;;;;;5043589;28;20055;-74
2023/09/27 04:59:20;;;;;;;0.93;0.30;;;;;;;;;;5042087;28;20392;-74
2023/09/27 05:01:51;;;;;;;0.63;0.30;;;;;;;;;;5040416;28;20426;-74
2023/09/27 05:04:22;;;;;;;1.02;0.20;;;;;;;;;;5040456;28;20056;-74
2023/09/27 05:06:54;;;;;;;0.13;0.10;;;;;;;;;;5042187;28;20527;-74
2023/09/27 05:09:24;;;;;;;3.83;0.28;;;;;;;;;;5042359;28;20495;-74
2023/09/27 05:11:55;;;;;;;1.65;0.20;;;;;;;;;;5041898;28;20051;-74
2023/09/27 05:14:25;;;;;;;1.55;0.10;;;;;;;;;;5042660;28;20131;-74
2023/09/27 05:16:55;;;;;;;1.45;0.20;;;;;;;;;;5042046;28;20546;-74
2023/09/27 05:19:25;;;;;;;0.57;0.10;;;;;;;;;;5042009;28;20041;-74
2023/09/27 05:21:56;;;;;;;2.17;0.17;;;;;;;;;;5042468;28;20041;-75
2023/09/27 05:24:26;;;;;;;0.77;0.20;;;;;;;;;;5041854;28;20059;-75
2023/09/27 05:26:59;;;;;;;0.82;0.22;;;;;;;;;;5042463;28;20427;-74
2023/09/27 05:29:29;;;;;;;4.03;0.40;;;;;;;;;;5042143;28;20052;-74
2023/09/27 05:31:59;;;;;;;1.67;0.10;;;;;;;;;;5042314;28;20063;-74
2023/09/27 05:34:31;;;;;;;2.17;0.20;;;;;;;;;;5042115;28;20092;-74
2023/09/27 05:37:02;;;;;;;2.08;0.13;;;;;;;;;;5041832;28;20052;-75
2023/09/27 05:39:31;;;;;;;2.03;0.30;;;;;;;;;;5041888;28;20044;-75
2023/09/27 05:42:01;;;;;;;0.52;0.20;;;;;;;;;;5041565;28;20045;-75
2023/09/27 05:44:32;;;;;;;3.17;0.30;;;;;;;;;;5041906;28;20045;-75
2023/09/27 05:47:02;;;;;;;0.88;0.35;;;;;;;;;;5041946;28;20428;-74
2023/09/27 05:49:34;;;;;;;1.02;0.30;;;;;;;;;;5041763;28;20052;-75
2023/09/27 05:52:05;;;;;;;0.15;0.15;;;;;;;;;;5041666;28;20048;-75
2023/09/27 05:54:36;;;;;;;0.57;0.38;;;;;;;;;;5042160;28;20055;-75
2023/09/27 05:57:06;;;;;;;0.50;0.10;;;;;;;;;;5041740;28;20041;-75
2023/09/27 05:59:41;;;;;;;0.75;0.10;;;;;;;;;;5041580;28;20045;-74
2023/09/27 06:02:17;;;;;;;1.48;0.30;;;;;;;;;;5042232;28;20867;-75
2023/09/27 06:04:48;;;;;;;1.20;0.10;;;;;;;;;;5041640;28;20049;-74
2023/09/27 06:07:20;;;;;;;0.20;0.10;;;;;;;;;;5041686;28;20049;-74
2023/09/27 06:09:52;;;;;;;7.97;0.30;;;;;;;;;;5041350;28;20060;-74
2023/09/27 06:12:22;;;;;;;0.60;0.10;;;;;;;;;;5041891;28;20071;-75
2023/09/27 06:14:52;;;;;;;0.10;0.10;;;;;;;;;;5044260;28;20056;-75
2023/09/27 06:17:24;;;;;;;0.05;0.00;;;;;;;;;;5044462;28;20139;-74
2023/09/27 06:19:55;;;;;;;0.00;0.00;;;;;;;;;;5045407;28;20045;-75
2023/09/27 06:22:27;;;;;;;0.20;0.10;;;;;;;;;;5044722;28;20045;-74
2023/09/27 06:24:57;;;;;;;1.05;0.08;;;;;;;;;;5043825;28;20432;-74
2023/09/27 06:27:29;;;;;;;0.50;0.10;;;;;;;;;;5044101;28;20788;-75
2023/09/27 06:29:59;;;;;;;0.20;0.20;;;;;;;;;;5045224;28;20049;-74
2023/09/27 06:32:29;;;;;;;0.20;0.17;;;;;;;;;;5045067;28;20053;-74
2023/09/27 06:34:59;;;;;;;0.98;0.20;;;;;;;;;;5045400;28;20104;-75
2023/09/27 06:37:30;;;;;;;0.17;0.17;;;;;;;;;;5045689;28;20041;-75
2023/09/27 06:40:01;;;;;;;0.03;0.03;;;;;;;;;;5045271;28;20055;-74
2023/09/27 06:42:31;;;;;;;1.55;0.10;;;;;;;;;;5045350;28;20515;-74
2023/09/27 06:45:01;;;;;;;2.85;0.20;;;;;;;;;;5044181;28;20049;-74
2023/09/27 06:47:35;;;;;;;2.25;0.10;;;;;;;;;;5045030;28;20053;-74
2023/09/27 06:50:08;;;;;;;0.60;0.10;;;;;;;;;;5045332;28;20052;-75
2023/09/27 06:52:40;;;;;;;0.10;0.10;;;;;;;;;;5044262;28;20508;-74
2023/09/27 06:55:10;;;;;;;1.35;0.40;;;;;;;;;;5044711;28;20049;-74
2023/09/27 06:57:41;;;;;;;1.55;0.20;;;;;;;;;;5044424;28;20395;-74
2023/09/27 07:00:24;;;;;;;0.47;0.10;;;;;;;;;;5044019;28;20503;-74
2023/09/27 07:02:55;;;;;;;0.10;0.10;;;;;;;;;;5044085;28;20049;-74
2023/09/27 07:05:26;;;;;;;1.00;0.20;;;;;;;;;;5044730;28;20387;-74
2023/09/27 07:07:56;;;;;;;0.10;0.03;;;;;;;;;;5044423;28;20323;-74
2023/09/27 07:10:28;;;;;;;0.05;0.05;;;;;;;;;;5044496;28;20060;-74
2023/09/27 07:12:58;;;;;;;0.10;0.10;;;;;;;;;;5045278;28;20041;-74
2023/09/27 07:15:30;;;;;;;0.10;0.10;;;;;;;;;;5044592;28;20053;-74
2023/09/27 07:18:00;;;;;;;0.00;0.00;;;;;;;;;;5043978;28;20088;-74
2023/09/27 07:20:36;;;;;;;1.55;0.20;;;;;;;;;;5044522;28;20508;-75
2023/09/27 07:23:08;;;;;;;3.30;0.15;;;;;;;;;;5044096;28;20049;-75
2023/09/27 07:25:39;;;;;;;0.08;0.08;;;;;;;;;;5044356;28;20060;-75
2023/09/27 07:28:10;;;;;;;0.10;0.10;;;;;;;;;;5045039;28;20049;-74
2023/09/27 07:30:40;;;;;;;2.17;0.10;;;;;;;;;;5044082;28;20041;-74
2023/09/27 07:33:17;;;;;;;0.03;0.00;;;;;;;;;;5044139;28;20507;-74
2023/09/27 07:35:51;;;;;;;0.00;0.00;;;;;;;;;;5044095;28;20049;-74
2023/09/27 07:38:22;;;;;;;0.00;0.00;;;;;;;;;;5043331;28;20053;-74
2023/09/27 07:40:53;;;;;;;0.00;0.00;;;;;;;;;;5043428;28;20057;-74
2023/09/27 07:43:23;;;;;;;0.00;0.00;;;;;;;;;;5043425;28;20057;-75
2023/09/27 07:45:54;;;;;;;0.00;0.00;;;;;;;;;;5043675;28;20048;-74
2023/09/27 07:48:25;;;;;;;0.08;0.08;;;;;;;;;;5044062;28;20052;-75
2023/09/27 07:51:09;;;;;;;0.00;0.00;;;;;;;;;;5043883;28;20766;-74
2023/09/27 07:53:41;;;;;;;0.00;0.00;;;;;;;;;;5043405;28;20424;-74
2023/09/27 07:56:19;;;;;;;0.22;0.10;;;;;;;;;;5043590;28;20049;-75
2023/09/27 07:58:51;;;;;;;0.00;0.00;;;;;;;;;;5044149;28;20045;-74
2023/09/27 08:01:23;;;;;;;0.00;0.00;;;;;;;;;;5043296;28;20045;-74
2023/09/27 08:04:05;;;;;;;0.00;0.00;;;;;;;;;;5043702;28;20416;-74
2023/09/27 08:06:40;;;;;;;0.00;0.00;;;;;;;;;;5043575;28;20062;-74
2023/09/27 08:09:10;;;;;;;0.90;0.00;;;;;;;;;;5044250;28;20064;-74
2023/09/27 08:11:56;;;;;;;0.85;0.20;;;;;;;;;;5043155;28;20396;-73
2023/09/27 08:14:26;;;;;;;0.00;0.00;;;;;;;;;;5042921;28;20045;-74
2023/09/27 08:16:57;;;;;;;0.10;0.10;;;;;;;;;;5041652;28;20064;-75
2023/09/27 08:19:28;;;;;;;0.00;0.00;;;;;;;;;;5041179;28;20045;-74
2023/09/27 08:21:58;;;;;;;0.10;0.00;;;;;;;;;;5043279;28;20051;-75
2023/09/27 08:24:29;;;;;;;0.00;0.00;;;;;;;;;;5042558;28;20048;-74
2023/09/27 08:27:01;;;;;;;2.38;0.10;;;;;;;;;;5042472;28;20053;-74
2023/09/27 08:29:31;;;;;;;0.47;0.00;;;;;;;;;;5042920;28;20080;-74
2023/09/27 08:32:00;;;;;;;0.03;0.03;;;;;;;;;;5041877;28;20064;-74
2023/09/27 08:34:31;;;;;;;0.10;0.10;;;;;;;;;;5042775;28;20049;-74
2023/09/27 08:37:03;;;;;;;1.08;0.00;;;;;;;;;;5041746;28;20500;-75
2023/09/27 08:39:34;;;;;;;0.20;0.00;;;;;;;;;;5042954;28;20053;-74
2023/09/27 08:42:05;;;;;;;2.08;0.17;;;;;;;;;;5043317;28;20041;-73
2023/09/27 08:44:36;;;;;;;1.45;0.20;;;;;;;;;;5043755;28;20057;-75
2023/09/27 08:47:07;;;;;;;0.13;0.10;;;;;;;;;;5043062;28;20056;-74
2023/09/27 08:49:40;;;;;;;0.17;0.08;;;;;;;;;;5042354;28;20044;-74
2023/09/27 08:52:11;;;;;;;5.05;0.30;;;;;;;;;;5041986;28;20051;-75
2023/09/27 08:54:41;;;;;;;0.93;0.03;;;;;;;;;;5042333;28;20052;-80
2023/09/27 08:57:13;;;;;;;0.00;0.00;;;;;;;;;;5043592;28;20059;-75
2023/09/27 08:59:44;;;;;;;0.00;0.00;;;;;;;;;;5042578;28;20049;-74
2023/09/27 09:02:16;;;;;;;2.60;0.25;;;;;;;;;;5043298;28;20044;-76
2023/09/27 09:04:47;;;;;;;0.10;0.00;;;;;;;;;;5042273;28;20068;-74
2023/09/27 09:07:17;;;;;;;0.00;0.00;;;;;;;;;;5042470;28;20488;-75
2023/09/27 09:09:48;;;;;;;0.00;0.00;;;;;;;;;;5042117;28;20057;-76
2023/09/27 09:12:18;;;;;;;0.10;0.10;;;;;;;;;;5042571;28;20055;-75
2023/09/27 09:14:54;;;;;;;0.50;0.10;;;;;;;;;;5042234;28;20048;-74
2023/09/27 09:17:36;;;;;;;0.10;0.10;;;;;;;;;;5042203;28;20056;-75
2023/09/27 09:20:31;;;;;;;0.00;0.00;;;;;;;;;;5041934;28;20056;-74
2023/09/27 09:23:12;;;;;;;0.00;0.00;;;;;;;;;;5042630;28;20084;-74
2023/09/27 09:25:46;;;;;;;0.10;0.00;;;;;;;;;;5042422;28;20048;-75
2023/09/27 09:28:16;;;;;;;0.10;0.10;;;;;;;;;;5042506;28;20056;-74
2023/09/27 09:30:46;;;;;;;0.10;0.05;;;;;;;;;;5042109;28;20045;-74
2023/09/27 09:33:36;;;;;;;3.72;0.20;;;;;;;;;;5040443;28;20060;-75
2023/09/27 09:36:07;;;;;;;0.10;0.10;;;;;;;;;;5041709;28;21126;-75
2023/09/27 09:38:36;;;;;;;5.78;0.30;;;;;;;;;;5040614;28;20097;-74
2023/09/27 09:41:06;;;;;;;0.08;0.08;;;;;;;;;;5041862;28;20048;-74
2023/09/27 09:43:39;;;;;;;2.08;0.03;;;;;;;;;;5042112;28;20411;-74
2023/09/27 09:46:10;;;;;;;0.40;0.30;;;;;;;;;;5042336;28;20408;-81
2023/09/27 09:48:41;;;;;;;0.10;0.10;;;;;;;;;;5044128;28;20041;-74
2023/09/27 09:51:12;;;;;;;0.20;0.10;;;;;;;;;;5045630;28;20049;-74
2023/09/27 09:53:43;;;;;;;0.10;0.08;;;;;;;;;;5045988;28;20052;-75
2023/09/27 09:56:17;;;;;;;0.45;0.10;;;;;;;;;;5045623;28;20055;-77
2023/09/27 09:59:03;;;;;;;0.10;0.10;;;;;;;;;;5046338;28;20057;-81
2023/09/27 10:01:39;;;;;;;0.82;0.10;;;;;;;;;;5046061;28;20511;-75
2023/09/27 10:04:10;;;;;;;0.45;0.30;;;;;;;;;;5045738;28;20388;-76
2023/09/27 10:06:41;;;;;;;0.10;0.10;;;;;;;;;;5044793;28;20496;-74
2023/09/27 10:09:18;;;;;;;0.20;0.10;;;;;;;;;;5045603;28;20053;-74
2023/09/27 10:11:48;;;;;;;0.10;0.10;;;;;;;;;;5045305;28;20071;-74
2023/09/27 10:14:20;;;;;;;1.92;0.10;;;;;;;;;;5045409;28;20416;-73
2023/09/27 10:16:51;;;;;;;0.32;0.20;;;;;;;;;;5045943;28;20036;-74
2023/09/27 10:19:28;;;;;;;0.00;0.00;;;;;;;;;;5045481;28;20049;-74
2023/09/27 10:22:07;;;;;;;0.65;0.10;;;;;;;;;;5045051;28;20546;-74
2023/09/27 10:24:42;;;;;;;1.10;0.10;;;;;;;;;;5045518;28;20568;-75
2023/09/27 10:27:13;;;;;;;0.43;0.10;;;;;;;;;;5045668;28;20049;-75
2023/09/27 10:29:56;;;;;;;0.55;0.10;;;;;;;;;;5045399;28;20095;-76
2023/09/27 10:32:27;;;;;;;0.22;0.10;;;;;;;;;;5045323;28;20048;-74
2023/09/27 10:35:21;;;;;;;0.13;0.10;;;;;;;;;;5046177;28;20049;-74
2023/09/27 10:37:59;;;;;;;;;;;;;;;;;;5043402;28;20060;-74
2023/09/27 10:40:42;;;;;;;0.00;0.00;;;;;;;;;;5044984;28;19924;-73
2023/09/27 10:43:34;;;;;;;0.10;0.10;;;;;;;;;;5045589;28;20112;-73
2023/09/27 10:46:05;;;;;;;0.10;0.10;;;;;;;;;;5044207;28;20048;-74
2023/09/27 10:48:37;;;;;;;0.10;0.10;;;;;;;;;;5025366;28;20049;-73
2023/09/27 10:51:08;;;;;;;0.00;0.00;;;;;;;;;;5025492;28;20049;-73
2023/09/27 10:53:39;;;;;;;0.75;0.10;;;;;;;;;;5024290;28;20045;-74
2023/09/27 10:56:10;;;;;;;0.95;0.20;;;;;;;;;;5024590;28;20505;-79
2023/09/27 10:58:50;;;;;;;0.20;0.20;;;;;;;;;;5024272;28;20048;-74
2023/09/27 11:01:21;;;;;;;1.35;0.10;;;;;;;;;;5024115;28;20057;-74
2023/09/27 11:04:02;;;;;;;0.00;0.00;;;;;;;;;;5024404;28;20072;-73
2023/09/27 11:06:34;;;;;;;0.00;0.00;;;;;;;;;;5040703;28;20053;-74
2023/09/27 11:09:08;;;;;;;0.20;0.20;;;;;;;;;;5024687;28;20424;-73
2023/09/27 11:11:46;;;;;;;0.00;0.00;;;;;;;;;;5024145;28;20049;-73
2023/09/27 11:14:31;;;;;;;0.10;0.10;;;;;;;;;;5024783;28;20037;-74
2023/09/27 11:17:21;;;;;;;0.17;0.17;;;;;;;;;;5024173;28;20037;-74
2023/09/27 11:19:53;;;;;;;0.05;0.05;;;;;;;;;;5024794;28;20064;-79
2023/09/27 11:22:27;;;;;;;0.88;0.28;;;;;;;;;;5024032;28;20056;-74
2023/09/27 11:24:57;;;;;;;0.10;0.10;;;;;;;;;;5024751;28;20052;-75
2023/09/27 11:27:27;;;;;;;0.30;0.22;;;;;;;;;;5024565;28;20056;-75
2023/09/27 11:29:59;;;;;;;2.05;0.28;;;;;;;;;;5024287;28;20050;-74
2023/09/27 11:32:49;;;;;;;0.10;0.10;;;;;;;;;;5023076;28;20795;-74
2023/09/27 11:35:21;;;;;;;0.30;0.15;;;;;;;;;;5024733;28;20847;-74
2023/09/27 11:38:14;;;;;;;2.47;0.32;;;;;;;;;;5023607;28;20052;-74
2023/09/27 11:40:46;;;;;;;0.00;0.00;;;;;;;;;;5023953;28;20493;-73
2023/09/27 11:43:17;;;;;;;0.15;0.15;;;;;;;;;;5023843;28;20054;-74
2023/09/27 11:45:48;;;;;;;1.42;0.20;;;;;;;;;;5023702;28;20046;-74
2023/09/27 11:48:32;;;;;;;1.58;0.13;;;;;;;;;;5023821;28;20060;-73
2023/09/27 11:51:04;;;;;;;0.65;0.10;;;;;;;;;;5023933;28;20107;-81
2023/09/27 11:53:34;;;;;;;1.75;0.20;;;;;;;;;;5022674;28;20053;-74
2023/09/27 11:56:06;;;;;;;0.20;0.20;;;;;;;;;;5038970;28;20528;-73
2023/09/27 11:58:37;;;;;;;0.95;0.13;;;;;;;;;;5024253;28;20069;-75
2023/09/27 12:01:11;;;;;;;0.20;0.20;;;;;;;;;;5039694;28;20061;-74
2023/09/27 12:03:42;;;;;;;0.10;0.10;;;;;;;;;;5024064;28;20044;-74
2023/09/27 12:06:13;;;;;;;0.50;0.15;;;;;;;;;;5023065;28;20076;-74
2023/09/27 12:08:45;;;;;;;0.20;0.20;;;;;;;;;;5023032;28;20060;-74
2023/09/27 12:11:15;;;;;;;0.17;0.17;;;;;;;;;;5022205;28;20131;-75
2023/09/27 12:13:45;;;;;;;0.35;0.10;;;;;;;;;;5023176;28;20583;-77
2023/09/27 12:16:18;;;;;;;0.30;0.13;;;;;;;;;;5023784;28;20056;-75
2023/09/27 12:18:49;;;;;;;1.15;0.40;;;;;;;;;;5022588;28;20120;-75
2023/09/27 12:21:21;;;;;;;0.22;0.20;;;;;;;;;;5037808;28;20045;-78
2023/09/27 12:23:51;;;;;;;3.95;0.30;;;;;;;;;;5023194;28;20053;-75
2023/09/27 12:26:24;;;;;;;0.20;0.20;;;;;;;;;;5023267;28;20416;-74
2023/09/27 12:28:55;;;;;;;0.13;0.10;;;;;;;;;;5023209;28;20050;-74
2023/09/27 12:31:25;;;;;;;0.20;0.20;;;;;;;;;;5023140;28;20057;-75
2023/09/27 12:33:55;;;;;;;2.45;0.25;;;;;;;;;;5023203;28;20052;-74
2023/09/27 12:36:26;;;;;;;3.40;0.20;;;;;;;;;;5022749;28;20057;-79
2023/09/27 12:38:56;;;;;;;0.00;0.00;;;;;;;;;;5023364;28;20060;-76
2023/09/27 12:41:26;;;;;;;0.47;0.20;;;;;;;;;;5023097;28;20064;-75
2023/09/27 12:43:57;;;;;;;0.10;0.05;;;;;;;;;;5023048;28;20079;-79
2023/09/27 12:46:28;;;;;;;1.55;0.20;;;;;;;;;;5023791;28;20515;-74
2023/09/27 12:48:59;;;;;;;0.10;0.10;;;;;;;;;;5022839;28;20045;-75
2023/09/27 12:51:31;;;;;;;0.10;0.10;;;;;;;;;;5022476;28;20064;-74
2023/09/27 12:54:16;;;;;;;3.85;0.20;;;;;;;;;;5023242;28;20523;-75
2023/09/27 12:56:46;;;;;;;0.13;0.10;;;;;;;;;;5021260;28;20053;-76
2023/09/27 12:59:19;;;;;;;0.43;0.22;;;;;;;;;;5022020;28;20504;-75
2023/09/27 13:01:51;;;;;;;0.35;0.10;;;;;;;;;;5022700;28;20080;-75
2023/09/27 13:04:24;;;;;;;0.10;0.10;;;;;;;;;;5023288;28;20044;-74
2023/09/27 13:06:55;;;;;;;0.10;0.10;;;;;;;;;;5022342;28;20045;-75
2023/09/27 13:09:25;;;;;;;0.22;0.22;;;;;;;;;;5022373;28;20493;-76
2023/09/27 13:11:56;;;;;;;2.05;0.15;;;;;;;;;;5022619;28;20050;-74
2023/09/27 13:14:26;;;;;;;1.05;0.20;;;;;;;;;;5023131;28;20044;-74
2023/09/27 13:16:56;;;;;;;0.10;0.10;;;;;;;;;;5037746;28;20052;-76
2023/09/27 13:19:26;;;;;;;0.45;0.30;;;;;;;;;;5022670;28;20049;-75
2023/09/27 13:21:56;;;;;;;0.95;0.20;;;;;;;;;;5022288;28;20041;-74
2023/09/27 13:24:27;;;;;;;1.83;0.32;;;;;;;;;;5037474;28;20041;-74
2023/09/27 13:26:57;;;;;;;0.10;0.10;;;;;;;;;;5037428;28;20060;-75
2023/09/27 13:29:27;;;;;;;3.60;0.40;;;;;;;;;;5022150;28;20052;-74
2023/09/27 13:31:57;;;;;;;0.75;0.60;;;;;;;;;;5021566;28;20046;-74
2023/09/27 13:34:31;;;;;;;0.20;0.15;;;;;;;;;;5022149;28;20057;-74
2023/09/27 13:37:02;;;;;;;1.00;0.20;;;;;;;;;;5020776;28;20049;-74
2023/09/27 13:39:32;;;;;;;0.38;0.10;;;;;;;;;;5022290;28;20045;-74
2023/09/27 13:42:03;;;;;;;0.20;0.20;;;;;;;;;;5020317;28;20045;-74
2023/09/27 13:44:33;;;;;;;0.20;0.20;;;;;;;;;;5021922;28;20046;-74
2023/09/27 13:47:03;;;;;;;0.75;0.30;;;;;;;;;;5021317;28;20048;-75
2023/09/27 13:49:34;;;;;;;0.20;0.17;;;;;;;;;;5021710;28;20049;-74
2023/09/27 13:52:04;;;;;;;0.80;0.25;;;;;;;;;;5022870;28;20052;-75
2023/09/27 13:54:34;;;;;;;0.20;0.20;;;;;;;;;;5023064;28;20493;-74
2023/09/27 13:57:06;;;;;;;1.40;0.30;;;;;;;;;;5021862;28;20041;-74
2023/09/27 13:59:39;;;;;;;1.00;0.47;;;;;;;;;;5021788;28;20111;-80
2023/09/27 14:02:14;;;;;;;0.45;0.35;;;;;;;;;;5022802;28;20355;-77
2023/09/27 14:04:44;;;;;;;1.45;0.40;;;;;;;;;;5022215;28;20049;-75
2023/09/27 14:07:15;;;;;;;0.30;0.30;;;;;;;;;;5021518;28;20050;-74
2023/09/27 14:09:46;;;;;;;1.73;0.50;;;;;;;;;;5022808;28;20060;-73
2023/09/27 14:12:16;;;;;;;0.60;0.40;;;;;;;;;;5021556;28;20052;-74
2023/09/27 14:14:46;;;;;;;0.68;0.57;;;;;;;;;;5021436;28;20041;-73
2023/09/27 14:17:17;;;;;;;0.63;0.60;;;;;;;;;;5036492;28;20045;-75
2023/09/27 14:19:49;;;;;;;1.05;0.45;;;;;;;;;;5019785;28;20057;-75
2023/09/27 14:22:19;;;;;;;1.52;0.40;;;;;;;;;;5021529;28;20699;-74
2023/09/27 14:24:50;;;;;;;1.45;0.50;;;;;;;;;;5021727;28;20048;-74
2023/09/27 14:27:20;;;;;;;2.17;0.50;;;;;;;;;;5021770;28;20397;-73
2023/09/27 14:29:51;;;;;;;0.90;0.30;;;;;;;;;;5022532;28;20099;-77
2023/09/27 14:32:21;;;;;;;2.13;0.50;;;;;;;;;;5021362;28;20063;-74
2023/09/27 14:34:54;;;;;;;1.50;0.50;;;;;;;;;;5022208;28;20053;-74
2023/09/27 14:37:27;;;;;;;3.45;0.30;;;;;;;;;;5025122;28;20049;-73
2023/09/27 14:39:57;;;;;;;3.90;0.43;;;;;;;;;;5025130;28;20982;-74
2023/09/27 14:42:27;;;;;;;2.67;0.60;;;;;;;;;;5025112;28;20054;-73
2023/09/27 14:44:57;;;;;;;1.65;0.50;;;;;;;;;;5025613;28;20132;-73
2023/09/27 14:47:28;;;;;;;0.60;0.50;;;;;;;;;;5024275;28;20046;-74
2023/09/27 14:49:59;;;;;;;1.58;0.60;;;;;;;;;;5024772;28;20045;-73
2023/09/27 14:52:31;;;;;;;0.65;0.60;;;;;;;;;;5025186;28;20377;-73
2023/09/27 14:55:02;;;;;;;3.03;0.40;;;;;;;;;;5025580;28;20045;-73
2023/09/27 14:57:33;;;;;;;0.77;0.35;;;;;;;;;;5025355;28;20397;-74
2023/09/27 15:00:04;;;;;;;0.65;0.35;;;;;;;;;;5024790;28;20056;-77
2023/09/27 15:02:35;;;;;;;1.67;0.45;;;;;;;;;;5025191;28;20052;-73
2023/09/27 15:05:06;;;;;;;1.13;0.35;;;;;;;;;;5024720;28;20408;-73
2023/09/27 15:07:39;;;;;;;0.35;0.30;;;;;;;;;;5025052;28;20116;-76
2023/09/27 15:10:10;;;;;;;0.47;0.40;;;;;;;;;;5024773;28;20056;-74
2023/09/27 15:12:41;;;;;;;0.30;0.30;;;;;;;;;;5024550;28;20135;-75